Eleonora Maersk — OVXP2 — position and weather

sailwx.info

Track history (hours):
 
Tides and Currents Weather Stations Pressure Air Temp Water Temp Dewpoint Dewpoint Depression Visibility Wind Speed Wind Dir Waves Ship Positions

Eleonora Maersk

Last reported at 2018-Jun-18 17:00 UTC. Time now 2018-Jun-18 17:18 UTC.
Position N 53°32' E 009°55'.

Length 399 m; draft 11 m.

Type: Cargo ship. MMSI: 220477000.

Date/timePositionNaut miles runAvg speedWind from/ knotsBaromVisibWave heightAir tempDewpointWater temp
2018-Jun-18 17:00N 53°32' E 009°55'0 0.0
2018-Jun-18 16:31N 53°32' E 009°55'0 0.0
2018-Jun-18 16:01N 53°32' E 009°55'0 0.0
2018-Jun-18 15:31N 53°32' E 009°55'0 0.0
2018-Jun-18 15:00N 53°32' E 009°55'0 0.0
2018-Jun-18 14:31N 53°32' E 009°55'0 0.0
2018-Jun-18 14:01N 53°32' E 009°55'0 0.0
2018-Jun-18 13:31N 53°32' E 009°55'0 0.0
2018-Jun-18 13:01N 53°32' E 009°55'0 0.0
2018-Jun-18 12:30N 53°32' E 009°55'0 0.0
2018-Jun-18 12:00N 53°32' E 009°55'0 0.0
2018-Jun-18 11:31N 53°32' E 009°55'0 0.0
2018-Jun-18 11:01N 53°32' E 009°55'0 0.0
2018-Jun-18 10:31N 53°32' E 009°55'0 0.0
2018-Jun-18 10:01N 53°32' E 009°55'0 0.0
2018-Jun-18 09:30N 53°32' E 009°55'0 0.0
2018-Jun-18 09:01N 53°32' E 009°55'0 0.0
2018-Jun-18 08:31N 53°32' E 009°55'0 0.0
2018-Jun-18 08:00N 53°32' E 009°55'0 0.0
2018-Jun-18 07:30N 53°32' E 009°55'0 0.0
2018-Jun-18 07:00N 53°32' E 009°55'0 0.0
2018-Jun-18 06:31N 53°32' E 009°55'0 0.0
2018-Jun-18 06:01N 53°32' E 009°55'0 0.0
2018-Jun-18 05:31N 53°32' E 009°55'0 0.0
2018-Jun-18 05:01N 53°32' E 009°55'0 0.0
2018-Jun-18 04:31N 53°32' E 009°55'0 0.0
2018-Jun-18 04:01N 53°32' E 009°55'0 0.0
2018-Jun-18 03:31N 53°32' E 009°55'0 0.0
2018-Jun-18 03:01N 53°32' E 009°55'0 0.0
2018-Jun-18 02:31N 53°32' E 009°55'0 0.0
2018-Jun-18 02:01N 53°32' E 009°55'0 0.0
2018-Jun-18 01:31N 53°32' E 009°55'0 0.0
2018-Jun-18 01:01N 53°32' E 009°55'0 0.0
2018-Jun-18 00:30N 53°32' E 009°55'0 0.0
2018-Jun-18 00:00N 53°32' E 009°55'0 0.0
2018-Jun-17 23:31N 53°32' E 009°55'0 0.0
2018-Jun-17 23:01N 53°32' E 009°55'0 0.0
2018-Jun-17 22:31N 53°32' E 009°55'0 0.0
2018-Jun-17 22:01N 53°32' E 009°55'0 0.0
2018-Jun-17 21:31N 53°32' E 009°55'0 0.0
2018-Jun-17 21:01N 53°32' E 009°55'0 0.0
2018-Jun-17 20:31N 53°32' E 009°55'1 1.3
2018-Jun-17 20:01N 53°32' E 009°55'1 1.9
2018-Jun-17 19:31N 53°32' E 009°53'3 6.7
2018-Jun-17 19:01N 53°33' E 009°48'4 8.0
2018-Jun-17 18:31N 53°34' E 009°41'611.8
2018-Jun-17 18:01N 53°37' E 009°33'611.2
2018-Jun-17 17:31N 53°42' E 009°29'713.4
2018-Jun-17 17:00N 53°48' E 009°23'714.2
2018-Jun-17 16:31N 53°53' E 009°14'510.2
2018-Jun-17 16:00N 53°52' E 009°05'510.9
2018-Jun-17 15:30N 53°51' E 008°56'611.9
2018-Jun-17 15:00N 53°51' E 008°46'612.0
2018-Jun-17 14:30N 53°55' E 008°40'713.9
2018-Jun-17 14:00N 53°58' E 008°29'714.3
2018-Jun-17 13:30N 53°60' E 008°17'714.2
2018-Jun-17 13:00N 53°59' E 008°05'510.9
2018-Jun-17 12:30N 53°58' E 007°56'2 4.7
2018-Jun-17 12:00N 53°57' E 007°52'5 9.2
2018-Jun-17 11:30N 53°57' E 007°45'7514.1
2018-Jun-17 06:10N 53°38' E 005°41'315.5
2018-Jun-17 05:58N 53°37' E 005°36'715.5
2018-Jun-17 05:30N 53°35' E 005°25'815.6
2018-Jun-17 05:00N 53°32' E 005°12'815.4
2018-Jun-17 04:30N 53°30' E 005°00'815.2
2018-Jun-17 04:00N 53°26' E 004°49'714.6
2018-Jun-17 03:30N 53°21' E 004°40'815.2
2018-Jun-17 03:00N 53°14' E 004°34'815.2
2018-Jun-17 02:30N 53°07' E 004°29'815.2
2018-Jun-17 02:00N 53°01' E 004°23'815.2
2018-Jun-17 01:30N 52°54' E 004°17'815.1
2018-Jun-17 01:00N 52°47' E 004°11'815.3
2018-Jun-17 00:30N 52°41' E 004°03'815.1
2018-Jun-17 00:00N 52°35' E 003°58'815.2
2018-Jun-16 23:30N 52°27' E 003°53'815.2
2018-Jun-16 23:00N 52°20' E 003°51'815.1
2018-Jun-16 22:30N 52°13' E 003°53'714.8
2018-Jun-16 22:00N 52°05' E 003°55'5 9.8
2018-Jun-16 21:31N 52°01' E 003°58'5 9.7
2018-Jun-16 21:01N 51°58' E 004°05'2 3.9
2018-Jun-16 20:30N 51°58' E 004°02'1 2.8
2018-Jun-16 20:01N 51°58' E 004°00'0 0.5
2018-Jun-16 19:30N 51°57' E 004°00'0 0.0
2018-Jun-16 19:00N 51°57' E 004°00'0 0.0
2018-Jun-16 18:30N 51°57' E 004°00'0 0.0
2018-Jun-16 18:00N 51°57' E 004°00'0 0.0
2018-Jun-16 17:30N 51°57' E 004°00'0 0.0
2018-Jun-16 17:00N 51°57' E 004°00'0 0.0
2018-Jun-16 16:30N 51°57' E 004°00'0 0.0
2018-Jun-16 16:00N 51°57' E 004°00'0 0.0
2018-Jun-16 15:30N 51°57' E 004°00'0 0.0
2018-Jun-16 15:00N 51°57' E 004°00'0 0.0
2018-Jun-16 14:30N 51°57' E 004°00'0 0.0
2018-Jun-16 14:00N 51°57' E 004°00'0 0.0
2018-Jun-16 13:30N 51°57' E 004°00'0 0.0
2018-Jun-16 13:00N 51°57' E 004°00'0 0.0
2018-Jun-16 12:30N 51°57' E 004°00'0 0.0
2018-Jun-16 12:00N 51°57' E 004°00'0 0.0
2018-Jun-16 11:30N 51°57' E 004°00'0 0.0
2018-Jun-16 11:00N 51°57' E 004°00'0 0.0
2018-Jun-16 10:30N 51°57' E 004°00'0 0.0
2018-Jun-16 10:00N 51°57' E 004°00'0 0.0
2018-Jun-16 09:30N 51°57' E 004°00'0 0.0
2018-Jun-16 09:00N 51°57' E 004°00'0 0.0
2018-Jun-16 08:30N 51°57' E 004°00'0 0.0
2018-Jun-16 08:00N 51°57' E 004°00'0 0.0
2018-Jun-16 07:30N 51°57' E 004°00'0 0.0
2018-Jun-16 07:00N 51°57' E 004°00'0 0.0
2018-Jun-16 06:30N 51°57' E 004°00'0 0.0
2018-Jun-16 06:00N 51°57' E 004°00'0 0.0
2018-Jun-16 05:30N 51°57' E 004°00'0 0.0
2018-Jun-16 05:00N 51°57' E 004°00'0 0.0
2018-Jun-16 04:30N 51°57' E 004°00'0 0.0
2018-Jun-16 04:00N 51°57' E 004°00'0 0.0
2018-Jun-16 03:30N 51°57' E 004°00'0 0.0
2018-Jun-16 03:00N 51°57' E 004°00'0 0.0
2018-Jun-16 02:30N 51°57' E 004°00'0 0.0
2018-Jun-16 02:00N 51°57' E 004°00'0 0.0
2018-Jun-16 01:30N 51°57' E 004°00'0 0.0
2018-Jun-16 01:00N 51°57' E 004°00'0 0.0
2018-Jun-16 00:30N 51°57' E 004°00'0 0.0
2018-Jun-16 00:00N 51°57' E 004°00'0 0.0
2018-Jun-15 23:30N 51°57' E 004°00'0 0.0
2018-Jun-15 23:00N 51°57' E 004°00'0 0.0
2018-Jun-15 22:30N 51°57' E 004°00'0 0.0
2018-Jun-15 22:00N 51°57' E 004°00'0 0.0
2018-Jun-15 21:30N 51°57' E 004°00'0 0.0
2018-Jun-15 21:00N 51°57' E 004°00'0 0.0
2018-Jun-15 20:30N 51°57' E 004°00'0 0.0
2018-Jun-15 20:00N 51°57' E 004°00'0 0.0
2018-Jun-15 19:30N 51°57' E 004°00'0 0.0
2018-Jun-15 19:00N 51°57' E 004°00'0 0.0
2018-Jun-15 18:30N 51°57' E 004°00'0 0.0
2018-Jun-15 18:00N 51°57' E 004°00'0 0.0
2018-Jun-15 17:30N 51°57' E 004°00'0 0.0
2018-Jun-15 17:00N 51°57' E 004°00'0 0.0
2018-Jun-15 16:30N 51°57' E 004°00'0 0.0
2018-Jun-15 16:00N 51°57' E 004°00'0 0.0
2018-Jun-15 15:30N 51°57' E 004°00'0 0.0
2018-Jun-15 15:00N 51°57' E 004°00'0 0.0
2018-Jun-15 14:30N 51°57' E 004°00'0 0.0
2018-Jun-15 14:00N 51°57' E 004°00'0 0.0
2018-Jun-15 13:28N 51°57' E 004°00'0 0.0
2018-Jun-15 12:58N 51°57' E 004°00'0 0.0
2018-Jun-15 12:28N 51°57' E 004°00'0 0.0
2018-Jun-15 11:58N 51°57' E 004°00'0 0.0
2018-Jun-15 11:28N 51°57' E 004°00'0 0.0
2018-Jun-15 10:58N 51°57' E 004°00'0 0.0
2018-Jun-15 10:28N 51°57' E 004°00'0 0.0
2018-Jun-15 09:58N 51°57' E 004°00'0 0.0
2018-Jun-15 09:28N 51°57' E 004°00'0 0.0
2018-Jun-15 08:58N 51°57' E 004°00'0 0.0
2018-Jun-15 08:28N 51°57' E 004°00'0 0.0
2018-Jun-15 07:58N 51°57' E 004°00'0 0.0
2018-Jun-15 07:28N 51°57' E 004°00'0 0.0
2018-Jun-15 06:58N 51°57' E 004°00'0 0.0
2018-Jun-15 06:29N 51°57' E 004°00'0 0.0
2018-Jun-15 06:00N 51°57' E 004°00'0 0.4
2018-Jun-15 05:31N 51°58' E 004°00'1 2.2
2018-Jun-15 05:00N 51°59' E 004°01'2 5.0
2018-Jun-15 04:30N 51°58' E 004°04'2 3.8
2018-Jun-15 04:00N 51°59' E 004°03'510.4
2018-Jun-15 03:31N 52°01' E 003°55'611.4
2018-Jun-15 03:00N 52°01' E 003°46'3 6.4
2018-Jun-15 02:30N 52°01' E 003°40'2 4.7
2018-Jun-15 02:00N 52°01' E 003°37'2 4.7
2018-Jun-15 01:30N 52°00' E 003°33'4 7.9
2018-Jun-15 01:00N 51°60' E 003°27'3 6.2
2018-Jun-15 00:30N 51°58' E 003°23'2 3.7
2018-Jun-15 00:00N 51°56' E 003°22'2 3.6
2018-Jun-14 23:30N 51°55' E 003°19'2 3.7
2018-Jun-14 23:00N 51°55' E 003°16'2 4.5
2018-Jun-14 22:30N 51°54' E 003°13'3 6.1
2018-Jun-14 21:57N 51°53' E 003°08'510.0
2018-Jun-14 21:28N 51°51' E 002°60'510.0
2018-Jun-14 21:00N 51°50' E 002°53'510.0
2018-Jun-14 20:30N 51°49' E 002°45'4 8.4
2018-Jun-14 20:00N 51°51' E 002°39'612.4
2018-Jun-14 19:30N 51°56' E 002°34'4 7.3
2018-Jun-14 19:00N 51°57' E 002°28'1 1.1
2018-Jun-14 18:30N 51°57' E 002°28'1 1.5
2018-Jun-14 18:00N 51°58' E 002°26'1 1.3
2018-Jun-14 17:30N 51°57' E 002°26'1 1.8
2018-Jun-14 17:00N 51°56' E 002°26'2 4.6
2018-Jun-14 16:30N 51°54' E 002°27'4 8.0
2018-Jun-14 16:00N 51°51' E 002°32'4 7.1
2018-Jun-14 15:29N 51°49' E 002°36'4 8.0
2018-Jun-14 15:00N 51°45' E 002°33'713.3
2018-Jun-14 14:30N 51°40' E 002°26'714.9
2018-Jun-14 14:00N 51°34' E 002°19'817.0
2018-Jun-14 13:30N 51°28' E 002°10'917.1
2018-Jun-14 13:00N 51°21' E 002°01'917.2
2018-Jun-14 12:30N 51°15' E 001°52'918.2
2018-Jun-14 12:00N 51°08' E 001°43'918.1
2018-Jun-14 11:31N 51°00' E 001°35'1121.6
2018-Jun-14 11:00N 50°51' E 001°26'1121.8
2018-Jun-14 10:31N 50°41' E 001°19'1223.6
2018-Jun-14 10:00N 50°32' E 001°06'1223.9
2018-Jun-14 09:31N 50°28' E 000°49'1224.2
2018-Jun-14 09:00N 50°23' E 000°32'1224.6
2018-Jun-14 08:30N 50°19' E 000°13'1224.7
2018-Jun-14 08:01N 50°15' W 000°05'1224.7
2018-Jun-14 07:30N 50°12' W 000°24'1224.8
2018-Jun-14 07:00N 50°09' W 000°43'1224.6
2018-Jun-14 06:30N 50°05' W 001°01'1224.2
2018-Jun-14 06:00N 50°02' W 001°19'1223.6
2018-Jun-14 05:31N 49°60' W 001°37'1223.0
2018-Jun-14 05:00N 49°57' W 001°54'1122.3
2018-Jun-14 04:30N 49°54' W 002°11'1121.6
2018-Jun-14 04:00N 49°52' W 002°28'1121.4
2018-Jun-14 03:29N 49°48' W 002°44'1021.2
2018-Jun-14 03:00N 49°44' W 002°58'1121.1
2018-Jun-14 02:30N 49°39' W 003°12'1421.1
2018-Jun-14 01:50N 49°32' W 003°32'921.2
2018-Jun-14 01:25N 49°28' W 003°44'921.3
2018-Jun-14 01:01N 49°24' W 003°55'1921.0
2018-Jun-14 00:07N 49°15' W 004°21'220.8
2018-Jun-14 00:00N 49°14' W 004°24'1020.8
2018-Jun-13 23:30N 49°09' W 004°38'1320.6
2018-Jun-13 22:53N 49°02' W 004°55'820.4
2018-Jun-13 22:31N 48°59' W 005°05'1020.3
2018-Jun-13 22:00N 48°54' W 005°18'1020.2
2018-Jun-13 21:31N 48°48' W 005°31'1120.1
2018-Jun-13 20:59N 48°39' W 005°41'1820.4
2018-Jun-13 20:06N 48°24' W 005°55'220.5
2018-Jun-13 20:00N 48°22' W 005°56'1020.6
2018-Jun-13 19:30N 48°13' W 006°03'54720.5
2018-Jun-12 16:51N 39°32' W 009°51'720.5
2018-Jun-12 16:30N 39°25' W 009°52'1020.3
2018-Jun-12 16:00N 39°15' W 009°52'1020.4
2018-Jun-12 15:30N 39°04' W 009°52'1020.4
2018-Jun-12 15:00N 38°54' W 009°52'1120.7
2018-Jun-12 14:30N 38°44' W 009°52'1020.9
2018-Jun-12 14:00N 38°34' W 009°49'1020.8
2018-Jun-12 13:30N 38°24' W 009°44'1121.4
2018-Jun-12 13:00N 38°14' W 009°41'1121.2
2018-Jun-12 12:30N 38°03' W 009°38'1121.2
2018-Jun-12 12:00N 37°53' W 009°34'1021.0
2018-Jun-12 11:31N 37°43' W 009°31'1121.1
2018-Jun-12 11:00N 37°33' W 009°28'5219.8
2018-Jun-12 08:23N 36°43' W 009°06'821.2
2018-Jun-12 08:00N 36°41' W 008°57'1321.0
2018-Jun-12 07:23N 36°37' W 008°42'821.0
2018-Jun-12 07:00N 36°34' W 008°32'1521.2
2018-Jun-12 06:19N 36°29' W 008°15'13321.5
2018-Jun-12 00:07N 35°57' W 005°34'220.4
2018-Jun-12 00:01N 35°58' W 005°32'1019.5
2018-Jun-11 23:31N 36°01' W 005°21'1019.4
2018-Jun-11 23:00N 36°04' W 005°09'27520.9
2018-Jun-11 09:53N 36°47' E 000°28'1521.2
2018-Jun-11 09:10N 36°49' E 000°47'44221.4
2018-Jun-10 12:31N 37°38' E 009°58'022.9
2018-Jun-10 12:30N 37°38' E 009°59'2222.4
2018-Jun-10 11:30N 37°36' E 010°27'1121.7
2018-Jun-10 11:00N 37°33' E 010°40'6822.1
2018-Jun-10 07:56N 37°06' E 011°58'1022.0
2018-Jun-10 07:29N 37°02' E 012°10'1122.0
2018-Jun-10 07:00N 36°59' E 012°23'1122.0
2018-Jun-10 06:30N 36°56' E 012°36'1122.0
2018-Jun-10 06:00N 36°54' E 012°49'1121.8
2018-Jun-10 05:30N 36°50' E 013°02'1122.0
2018-Jun-10 05:00N 36°47' E 013°16'1122.1
2018-Jun-10 04:30N 36°44' E 013°29'1121.7
2018-Jun-10 04:00N 36°41' E 013°42'1121.5
2018-Jun-10 03:30N 36°38' E 013°54'1221.8
2018-Jun-10 02:59N 36°34' E 014°08'1021.8
2018-Jun-10 02:30N 36°31' E 014°20'1121.8
2018-Jun-10 02:00N 36°27' E 014°33'1121.5
2018-Jun-10 01:30N 36°24' E 014°46'1121.7
2018-Jun-10 01:00N 36°20' E 014°59'68922.0
2018-Jun-08 17:40N 32°59' E 028°20'421.9
2018-Jun-08 17:29N 32°58' E 028°24'1121.8
2018-Jun-08 17:00N 32°54' E 028°35'  
Track history (hours):
 
Tides and Currents Weather Stations Pressure Air Temp Water Temp Dewpoint Dewpoint Depression Visibility Wind Speed Wind Dir Waves Ship Positions

Eleonora Maersk

Last reported at 2018-Jun-18 17:00 UTC. Time now 2018-Jun-18 17:18 UTC.
Position N 53°32' E 009°55'.

Length 399 m; draft 11 m.

Type: Cargo ship. MMSI: 220477000.

Date/timePositionNaut miles runAvg speedWind from/ knotsBaromVisibWave heightAir tempDewpointWater temp
2018-Jun-18 17:00N 53°32' E 009°55'0 0.0
2018-Jun-18 16:31N 53°32' E 009°55'0 0.0
2018-Jun-18 16:01N 53°32' E 009°55'0 0.0
2018-Jun-18 15:31N 53°32' E 009°55'0 0.0
2018-Jun-18 15:00N 53°32' E 009°55'0 0.0
2018-Jun-18 14:31N 53°32' E 009°55'0 0.0
2018-Jun-18 14:01N 53°32' E 009°55'0 0.0
2018-Jun-18 13:31N 53°32' E 009°55'0 0.0
2018-Jun-18 13:01N 53°32' E 009°55'0 0.0
2018-Jun-18 12:30N 53°32' E 009°55'0 0.0
2018-Jun-18 12:00N 53°32' E 009°55'0 0.0
2018-Jun-18 11:31N 53°32' E 009°55'0 0.0
2018-Jun-18 11:01N 53°32' E 009°55'0 0.0
2018-Jun-18 10:31N 53°32' E 009°55'0 0.0
2018-Jun-18 10:01N 53°32' E 009°55'0 0.0
2018-Jun-18 09:30N 53°32' E 009°55'0 0.0
2018-Jun-18 09:01N 53°32' E 009°55'0 0.0
2018-Jun-18 08:31N 53°32' E 009°55'0 0.0
2018-Jun-18 08:00N 53°32' E 009°55'0 0.0
2018-Jun-18 07:30N 53°32' E 009°55'0 0.0
2018-Jun-18 07:00N 53°32' E 009°55'0 0.0
2018-Jun-18 06:31N 53°32' E 009°55'0 0.0
2018-Jun-18 06:01N 53°32' E 009°55'0 0.0
2018-Jun-18 05:31N 53°32' E 009°55'0 0.0
2018-Jun-18 05:01N 53°32' E 009°55'0 0.0
2018-Jun-18 04:31N 53°32' E 009°55'0 0.0
2018-Jun-18 04:01N 53°32' E 009°55'0 0.0
2018-Jun-18 03:31N 53°32' E 009°55'0 0.0
2018-Jun-18 03:01N 53°32' E 009°55'0 0.0
2018-Jun-18 02:31N 53°32' E 009°55'0 0.0
2018-Jun-18 02:01N 53°32' E 009°55'0 0.0
2018-Jun-18 01:31N 53°32' E 009°55'0 0.0
2018-Jun-18 01:01N 53°32' E 009°55'0 0.0
2018-Jun-18 00:30N 53°32' E 009°55'0 0.0
2018-Jun-18 00:00N 53°32' E 009°55'0 0.0
2018-Jun-17 23:31N 53°32' E 009°55'0 0.0
2018-Jun-17 23:01N 53°32' E 009°55'0 0.0
2018-Jun-17 22:31N 53°32' E 009°55'0 0.0
2018-Jun-17 22:01N 53°32' E 009°55'0 0.0
2018-Jun-17 21:31N 53°32' E 009°55'0 0.0
2018-Jun-17 21:01N 53°32' E 009°55'0 0.0
2018-Jun-17 20:31N 53°32' E 009°55'1 1.3
2018-Jun-17 20:01N 53°32' E 009°55'1 1.9
2018-Jun-17 19:31N 53°32' E 009°53'3 6.7
2018-Jun-17 19:01N 53°33' E 009°48'4 8.0
2018-Jun-17 18:31N 53°34' E 009°41'611.8
2018-Jun-17 18:01N 53°37' E 009°33'611.2
2018-Jun-17 17:31N 53°42' E 009°29'713.4
2018-Jun-17 17:00N 53°48' E 009°23'714.2
2018-Jun-17 16:31N 53°53' E 009°14'510.2
2018-Jun-17 16:00N 53°52' E 009°05'510.9
2018-Jun-17 15:30N 53°51' E 008°56'611.9
2018-Jun-17 15:00N 53°51' E 008°46'612.0
2018-Jun-17 14:30N 53°55' E 008°40'713.9
2018-Jun-17 14:00N 53°58' E 008°29'714.3
2018-Jun-17 13:30N 53°60' E 008°17'714.2
2018-Jun-17 13:00N 53°59' E 008°05'510.9
2018-Jun-17 12:30N 53°58' E 007°56'2 4.7
2018-Jun-17 12:00N 53°57' E 007°52'5 9.2
2018-Jun-17 11:30N 53°57' E 007°45'7514.1
2018-Jun-17 06:10N 53°38' E 005°41'315.5
2018-Jun-17 05:58N 53°37' E 005°36'715.5
2018-Jun-17 05:30N 53°35' E 005°25'815.6
2018-Jun-17 05:00N 53°32' E 005°12'815.4
2018-Jun-17 04:30N 53°30' E 005°00'815.2
2018-Jun-17 04:00N 53°26' E 004°49'714.6
2018-Jun-17 03:30N 53°21' E 004°40'815.2
2018-Jun-17 03:00N 53°14' E 004°34'815.2
2018-Jun-17 02:30N 53°07' E 004°29'815.2
2018-Jun-17 02:00N 53°01' E 004°23'815.2
2018-Jun-17 01:30N 52°54' E 004°17'815.1
2018-Jun-17 01:00N 52°47' E 004°11'815.3
2018-Jun-17 00:30N 52°41' E 004°03'815.1
2018-Jun-17 00:00N 52°35' E 003°58'815.2
2018-Jun-16 23:30N 52°27' E 003°53'815.2
2018-Jun-16 23:00N 52°20' E 003°51'815.1
2018-Jun-16 22:30N 52°13' E 003°53'714.8
2018-Jun-16 22:00N 52°05' E 003°55'5 9.8
2018-Jun-16 21:31N 52°01' E 003°58'5 9.7
2018-Jun-16 21:01N 51°58' E 004°05'2 3.9
2018-Jun-16 20:30N 51°58' E 004°02'1 2.8
2018-Jun-16 20:01N 51°58' E 004°00'0 0.5
2018-Jun-16 19:30N 51°57' E 004°00'0 0.0
2018-Jun-16 19:00N 51°57' E 004°00'0 0.0
2018-Jun-16 18:30N 51°57' E 004°00'0 0.0
2018-Jun-16 18:00N 51°57' E 004°00'0 0.0
2018-Jun-16 17:30N 51°57' E 004°00'0 0.0
2018-Jun-16 17:00N 51°57' E 004°00'0 0.0
2018-Jun-16 16:30N 51°57' E 004°00'0 0.0
2018-Jun-16 16:00N 51°57' E 004°00'0 0.0
2018-Jun-16 15:30N 51°57' E 004°00'0 0.0
2018-Jun-16 15:00N 51°57' E 004°00'0 0.0
2018-Jun-16 14:30N 51°57' E 004°00'0 0.0
2018-Jun-16 14:00N 51°57' E 004°00'0 0.0
2018-Jun-16 13:30N 51°57' E 004°00'0 0.0
2018-Jun-16 13:00N 51°57' E 004°00'0 0.0
2018-Jun-16 12:30N 51°57' E 004°00'0 0.0
2018-Jun-16 12:00N 51°57' E 004°00'0 0.0
2018-Jun-16 11:30N 51°57' E 004°00'0 0.0
2018-Jun-16 11:00N 51°57' E 004°00'0 0.0
2018-Jun-16 10:30N 51°57' E 004°00'0 0.0
2018-Jun-16 10:00N 51°57' E 004°00'0 0.0
2018-Jun-16 09:30N 51°57' E 004°00'0 0.0
2018-Jun-16 09:00N 51°57' E 004°00'0 0.0
2018-Jun-16 08:30N 51°57' E 004°00'0 0.0
2018-Jun-16 08:00N 51°57' E 004°00'0 0.0
2018-Jun-16 07:30N 51°57' E 004°00'0 0.0
2018-Jun-16 07:00N 51°57' E 004°00'0 0.0
2018-Jun-16 06:30N 51°57' E 004°00'0 0.0
2018-Jun-16 06:00N 51°57' E 004°00'0 0.0
2018-Jun-16 05:30N 51°57' E 004°00'0 0.0
2018-Jun-16 05:00N 51°57' E 004°00'0 0.0
2018-Jun-16 04:30N 51°57' E 004°00'0 0.0
2018-Jun-16 04:00N 51°57' E 004°00'0 0.0
2018-Jun-16 03:30N 51°57' E 004°00'0 0.0
2018-Jun-16 03:00N 51°57' E 004°00'0 0.0
2018-Jun-16 02:30N 51°57' E 004°00'0 0.0
2018-Jun-16 02:00N 51°57' E 004°00'0 0.0
2018-Jun-16 01:30N 51°57' E 004°00'0 0.0
2018-Jun-16 01:00N 51°57' E 004°00'0 0.0
2018-Jun-16 00:30N 51°57' E 004°00'0 0.0
2018-Jun-16 00:00N 51°57' E 004°00'0 0.0
2018-Jun-15 23:30N 51°57' E 004°00'0 0.0
2018-Jun-15 23:00N 51°57' E 004°00'0 0.0
2018-Jun-15 22:30N 51°57' E 004°00'0 0.0
2018-Jun-15 22:00N 51°57' E 004°00'0 0.0
2018-Jun-15 21:30N 51°57' E 004°00'0 0.0
2018-Jun-15 21:00N 51°57' E 004°00'0 0.0
2018-Jun-15 20:30N 51°57' E 004°00'0 0.0
2018-Jun-15 20:00N 51°57' E 004°00'0 0.0
2018-Jun-15 19:30N 51°57' E 004°00'0 0.0
2018-Jun-15 19:00N 51°57' E 004°00'0 0.0
2018-Jun-15 18:30N 51°57' E 004°00'0 0.0
2018-Jun-15 18:00N 51°57' E 004°00'0 0.0
2018-Jun-15 17:30N 51°57' E 004°00'0 0.0
2018-Jun-15 17:00N 51°57' E 004°00'0 0.0
2018-Jun-15 16:30N 51°57' E 004°00'0 0.0
2018-Jun-15 16:00N 51°57' E 004°00'0 0.0
2018-Jun-15 15:30N 51°57' E 004°00'0 0.0
2018-Jun-15 15:00N 51°57' E 004°00'0 0.0
2018-Jun-15 14:30N 51°57' E 004°00'0 0.0
2018-Jun-15 14:00N 51°57' E 004°00'0 0.0
2018-Jun-15 13:28N 51°57' E 004°00'0 0.0
2018-Jun-15 12:58N 51°57' E 004°00'0 0.0
2018-Jun-15 12:28N 51°57' E 004°00'0 0.0
2018-Jun-15 11:58N 51°57' E 004°00'0 0.0
2018-Jun-15 11:28N 51°57' E 004°00'0 0.0
2018-Jun-15 10:58N 51°57' E 004°00'0 0.0
2018-Jun-15 10:28N 51°57' E 004°00'0 0.0
2018-Jun-15 09:58N 51°57' E 004°00'0 0.0
2018-Jun-15 09:28N 51°57' E 004°00'0 0.0
2018-Jun-15 08:58N 51°57' E 004°00'0 0.0
2018-Jun-15 08:28N 51°57' E 004°00'0 0.0
2018-Jun-15 07:58N 51°57' E 004°00'0 0.0
2018-Jun-15 07:28N 51°57' E 004°00'0 0.0
2018-Jun-15 06:58N 51°57' E 004°00'0 0.0
2018-Jun-15 06:29N 51°57' E 004°00'0 0.0
2018-Jun-15 06:00N 51°57' E 004°00'0 0.4
2018-Jun-15 05:31N 51°58' E 004°00'1 2.2
2018-Jun-15 05:00N 51°59' E 004°01'2 5.0
2018-Jun-15 04:30N 51°58' E 004°04'2 3.8
2018-Jun-15 04:00N 51°59' E 004°03'510.4
2018-Jun-15 03:31N 52°01' E 003°55'611.4
2018-Jun-15 03:00N 52°01' E 003°46'3 6.4
2018-Jun-15 02:30N 52°01' E 003°40'2 4.7
2018-Jun-15 02:00N 52°01' E 003°37'2 4.7
2018-Jun-15 01:30N 52°00' E 003°33'4 7.9
2018-Jun-15 01:00N 51°60' E 003°27'3 6.2
2018-Jun-15 00:30N 51°58' E 003°23'2 3.7
2018-Jun-15 00:00N 51°56' E 003°22'2 3.6
2018-Jun-14 23:30N 51°55' E 003°19'2 3.7
2018-Jun-14 23:00N 51°55' E 003°16'2 4.5
2018-Jun-14 22:30N 51°54' E 003°13'3 6.1
2018-Jun-14 21:57N 51°53' E 003°08'510.0
2018-Jun-14 21:28N 51°51' E 002°60'510.0
2018-Jun-14 21:00N 51°50' E 002°53'510.0
2018-Jun-14 20:30N 51°49' E 002°45'4 8.4
2018-Jun-14 20:00N 51°51' E 002°39'612.4
2018-Jun-14 19:30N 51°56' E 002°34'4 7.3
2018-Jun-14 19:00N 51°57' E 002°28'1 1.1
2018-Jun-14 18:30N 51°57' E 002°28'1 1.5
2018-Jun-14 18:00N 51°58' E 002°26'1 1.3
2018-Jun-14 17:30N 51°57' E 002°26'1 1.8
2018-Jun-14 17:00N 51°56' E 002°26'2 4.6
2018-Jun-14 16:30N 51°54' E 002°27'4 8.0
2018-Jun-14 16:00N 51°51' E 002°32'4 7.1
2018-Jun-14 15:29N 51°49' E 002°36'4 8.0
2018-Jun-14 15:00N 51°45' E 002°33'713.3
2018-Jun-14 14:30N 51°40' E 002°26'714.9
2018-Jun-14 14:00N 51°34' E 002°19'817.0
2018-Jun-14 13:30N 51°28' E 002°10'917.1
2018-Jun-14 13:00N 51°21' E 002°01'917.2
2018-Jun-14 12:30N 51°15' E 001°52'918.2
2018-Jun-14 12:00N 51°08' E 001°43'918.1
2018-Jun-14 11:31N 51°00' E 001°35'1121.6
2018-Jun-14 11:00N 50°51' E 001°26'1121.8
2018-Jun-14 10:31N 50°41' E 001°19'1223.6
2018-Jun-14 10:00N 50°32' E 001°06'1223.9
2018-Jun-14 09:31N 50°28' E 000°49'1224.2
2018-Jun-14 09:00N 50°23' E 000°32'1224.6
2018-Jun-14 08:30N 50°19' E 000°13'1224.7
2018-Jun-14 08:01N 50°15' W 000°05'1224.7
2018-Jun-14 07:30N 50°12' W 000°24'1224.8
2018-Jun-14 07:00N 50°09' W 000°43'1224.6
2018-Jun-14 06:30N 50°05' W 001°01'1224.2
2018-Jun-14 06:00N 50°02' W 001°19'1223.6
2018-Jun-14 05:31N 49°60' W 001°37'1223.0
2018-Jun-14 05:00N 49°57' W 001°54'1122.3
2018-Jun-14 04:30N 49°54' W 002°11'1121.6
2018-Jun-14 04:00N 49°52' W 002°28'1121.4
2018-Jun-14 03:29N 49°48' W 002°44'1021.2
2018-Jun-14 03:00N 49°44' W 002°58'1121.1
2018-Jun-14 02:30N 49°39' W 003°12'1421.1
2018-Jun-14 01:50N 49°32' W 003°32'921.2
2018-Jun-14 01:25N 49°28' W 003°44'921.3
2018-Jun-14 01:01N 49°24' W 003°55'1921.0
2018-Jun-14 00:07N 49°15' W 004°21'220.8
2018-Jun-14 00:00N 49°14' W 004°24'1020.8
2018-Jun-13 23:30N 49°09' W 004°38'1320.6
2018-Jun-13 22:53N 49°02' W 004°55'820.4
2018-Jun-13 22:31N 48°59' W 005°05'1020.3
2018-Jun-13 22:00N 48°54' W 005°18'1020.2
2018-Jun-13 21:31N 48°48' W 005°31'1120.1
2018-Jun-13 20:59N 48°39' W 005°41'1820.4
2018-Jun-13 20:06N 48°24' W 005°55'220.5
2018-Jun-13 20:00N 48°22' W 005°56'1020.6
2018-Jun-13 19:30N 48°13' W 006°03'54720.5
2018-Jun-12 16:51N 39°32' W 009°51'720.5
2018-Jun-12 16:30N 39°25' W 009°52'1020.3
2018-Jun-12 16:00N 39°15' W 009°52'1020.4
2018-Jun-12 15:30N 39°04' W 009°52'1020.4
2018-Jun-12 15:00N 38°54' W 009°52'1120.7
2018-Jun-12 14:30N 38°44' W 009°52'1020.9
2018-Jun-12 14:00N 38°34' W 009°49'1020.8
2018-Jun-12 13:30N 38°24' W 009°44'1121.4
2018-Jun-12 13:00N 38°14' W 009°41'1121.2
2018-Jun-12 12:30N 38°03' W 009°38'1121.2
2018-Jun-12 12:00N 37°53' W 009°34'1021.0
2018-Jun-12 11:31N 37°43' W 009°31'1121.1
2018-Jun-12 11:00N 37°33' W 009°28'5219.8
2018-Jun-12 08:23N 36°43' W 009°06'821.2
2018-Jun-12 08:00N 36°41' W 008°57'1321.0
2018-Jun-12 07:23N 36°37' W 008°42'821.0
2018-Jun-12 07:00N 36°34' W 008°32'1521.2
2018-Jun-12 06:19N 36°29' W 008°15'13321.5
2018-Jun-12 00:07N 35°57' W 005°34'220.4
2018-Jun-12 00:01N 35°58' W 005°32'1019.5
2018-Jun-11 23:31N 36°01' W 005°21'1019.4
2018-Jun-11 23:00N 36°04' W 005°09'27520.9
2018-Jun-11 09:53N 36°47' E 000°28'1521.2
2018-Jun-11 09:10N 36°49' E 000°47'44221.4
2018-Jun-10 12:31N 37°38' E 009°58'022.9
2018-Jun-10 12:30N 37°38' E 009°59'2222.4
2018-Jun-10 11:30N 37°36' E 010°27'1121.7
2018-Jun-10 11:00N 37°33' E 010°40'6822.1
2018-Jun-10 07:56N 37°06' E 011°58'1022.0
2018-Jun-10 07:29N 37°02' E 012°10'1122.0
2018-Jun-10 07:00N 36°59' E 012°23'1122.0
2018-Jun-10 06:30N 36°56' E 012°36'1122.0
2018-Jun-10 06:00N 36°54' E 012°49'1121.8
2018-Jun-10 05:30N 36°50' E 013°02'1122.0
2018-Jun-10 05:00N 36°47' E 013°16'1122.1
2018-Jun-10 04:30N 36°44' E 013°29'1121.7
2018-Jun-10 04:00N 36°41' E 013°42'1121.5
2018-Jun-10 03:30N 36°38' E 013°54'1221.8
2018-Jun-10 02:59N 36°34' E 014°08'1021.8
2018-Jun-10 02:30N 36°31' E 014°20'1121.8
2018-Jun-10 02:00N 36°27' E 014°33'1121.5
2018-Jun-10 01:30N 36°24' E 014°46'1121.7
2018-Jun-10 01:00N 36°20' E 014°59'68922.0
2018-Jun-08 17:40N 32°59' E 028°20'421.9
2018-Jun-08 17:29N 32°58' E 028°24'1121.8
2018-Jun-08 17:00N 32°54' E 028°35'  

Dump ship's entire track history